Neal Savage — WDG2633 — position and weather

sailwx.info

Track history (hours):
 
Tides and Currents Weather Stations Pressure Air Temp Water Temp Dewpoint Dewpoint Depression Visibility Wind Speed Wind Dir Waves Ship Positions

Neal Savage

Owner: Savage Inland Marine, Gibson, LA. More information available from US FCC via Universal Licensing System and Coast Guard Vessel Documentation Center.

Last reported at 2018-Apr-08 15:47 UTC. Time now 2018-Apr-20 05:01 UTC.
Position N 32°37' W 091°09'.
Warning: this ship's position is 11 days out of date.

Length 29 m; draft 3.3 m.

Type: Towing. MMSI: 367517630.

Date/timePositionNaut miles runAvg speedWind from/ knotsBaromVisibWave heightAir tempDewpointWater temp
2018-Apr-08 15:47N 32°37' W 091°09'1 4.8
2018-Apr-08 15:30N 32°36' W 091°08'3 4.6
2018-Apr-08 14:57N 32°33' W 091°07'3 5.1
2018-Apr-08 14:27N 32°31' W 091°07'2 4.1
2018-Apr-08 14:00N 32°29' W 091°07'2 4.7
2018-Apr-08 13:30N 32°27' W 091°05'3 5.5
2018-Apr-08 13:00N 32°26' W 091°02'2 4.7
2018-Apr-08 12:30N 32°24' W 091°00'2 4.8
2018-Apr-08 12:00N 32°22' W 091°00'2 4.7
2018-Apr-08 11:30N 32°21' W 090°58'2 4.1
2018-Apr-08 11:00N 32°20' W 090°55'2 3.7
2018-Apr-08 10:30N 32°19' W 090°55'3 5.1
2018-Apr-08 10:00N 32°17' W 090°57'2 3.7
2018-Apr-08 09:30N 32°15' W 090°58'3 5.4
2018-Apr-08 09:00N 32°13' W 090°59'2 4.5
2018-Apr-08 08:30N 32°10' W 090°60'3 5.3
2018-Apr-08 08:00N 32°08' W 091°00'2 3.9
2018-Apr-08 07:30N 32°07' W 091°03'2 4.4
2018-Apr-08 06:59N 32°08' W 091°05'3 4.4
2018-Apr-08 06:16N 32°05' W 091°05'  
Track history (hours):
 
Tides and Currents Weather Stations Pressure Air Temp Water Temp Dewpoint Dewpoint Depression Visibility Wind Speed Wind Dir Waves Ship Positions

Neal Savage

Owner: Savage Inland Marine, Gibson, LA. More information available from US FCC via Universal Licensing System and Coast Guard Vessel Documentation Center.

Last reported at 2018-Apr-08 15:47 UTC. Time now 2018-Apr-20 05:01 UTC.
Position N 32°37' W 091°09'.
Warning: this ship's position is 11 days out of date.

Length 29 m; draft 3.3 m.

Type: Towing. MMSI: 367517630.

Date/timePositionNaut miles runAvg speedWind from/ knotsBaromVisibWave heightAir tempDewpointWater temp
2018-Apr-08 15:47N 32°37' W 091°09'1 4.8
2018-Apr-08 15:30N 32°36' W 091°08'3 4.6
2018-Apr-08 14:57N 32°33' W 091°07'3 5.1
2018-Apr-08 14:27N 32°31' W 091°07'2 4.1
2018-Apr-08 14:00N 32°29' W 091°07'2 4.7
2018-Apr-08 13:30N 32°27' W 091°05'3 5.5
2018-Apr-08 13:00N 32°26' W 091°02'2 4.7
2018-Apr-08 12:30N 32°24' W 091°00'2 4.8
2018-Apr-08 12:00N 32°22' W 091°00'2 4.7
2018-Apr-08 11:30N 32°21' W 090°58'2 4.1
2018-Apr-08 11:00N 32°20' W 090°55'2 3.7
2018-Apr-08 10:30N 32°19' W 090°55'3 5.1
2018-Apr-08 10:00N 32°17' W 090°57'2 3.7
2018-Apr-08 09:30N 32°15' W 090°58'3 5.4
2018-Apr-08 09:00N 32°13' W 090°59'2 4.5
2018-Apr-08 08:30N 32°10' W 090°60'3 5.3
2018-Apr-08 08:00N 32°08' W 091°00'2 3.9
2018-Apr-08 07:30N 32°07' W 091°03'2 4.4
2018-Apr-08 06:59N 32°08' W 091°05'3 4.4
2018-Apr-08 06:16N 32°05' W 091°05'  

Dump ship's entire track history